CVF weather

Courchevel Airport
Courcheval, Rhône Alpes, France

Public forecast

Using degrees Celsius for public forecast. Weather courtesy of forecast.io.

METAR (pilot weather report)

Closest report is Chambéry-Savoie Airport, 34.9 nm (64.6 km) WNW. Retrieved 2019/03/26 13:30 UTC (20 minutes ago):

LFLB 261330Z AUTO 34015KT 9999 4400 NSC 13/M01 Q1024 TEMPO 36020G35KT

TAF (pilot weather forecast)

Closest forecast is Chambéry-Savoie Airport, 34.9 nm (64.6 km) WNW. Retrieved 2019/03/26 12:21 UTC (1 hour ago):

TAF LFLB 261100Z 2612/2712 36015G25KT CAVOK TEMPO 2612/2617 36020G35KT BECMG 2700/2702 36010KT PROB40 TEMPO 2707/2712 36015G25KT